createdAt,value
2022-07-31T00:15:47.323Z,9.17
2022-07-31T00:19:30.175Z,10.07
2022-07-31T00:21:59.339Z,11.00
2022-07-31T00:24:30.087Z,11.53
2022-07-31T00:26:58.709Z,11.40
2022-07-31T00:29:27.365Z,10.37
2022-07-31T00:31:56.729Z,10.77
2022-07-31T00:34:25.365Z,10.40
2022-07-31T00:36:55.243Z,10.50
2022-07-31T00:39:24.557Z,10.47
2022-07-31T00:41:54.913Z,10.13
2022-07-31T00:44:23.402Z,10.57
2022-07-31T00:46:51.853Z,10.30
2022-07-31T00:49:20.335Z,9.90
2022-07-31T00:51:49.118Z,10.57
2022-07-31T00:54:23.017Z,11.03
2022-07-31T00:56:52.825Z,9.67
2022-07-31T00:59:24.449Z,10.47
2022-07-31T01:01:54.086Z,10.00
2022-07-31T01:04:22.568Z,10.23
2022-07-31T01:06:51.245Z,9.40
2022-07-31T01:09:21.195Z,9.50
2022-07-31T01:12:00.222Z,9.50
2022-07-31T01:14:35.117Z,9.67
2022-07-31T01:17:06.071Z,9.37
2022-07-31T01:19:42.586Z,9.30
2022-07-31T01:27:28.716Z,9.97
2022-07-31T01:41:36.764Z,8.93
2022-07-31T01:47:52.075Z,8.70
2022-07-31T01:55:29.414Z,9.50
2022-07-31T02:00:33.499Z,9.93
2022-07-31T02:20:09.916Z,10.00
2022-07-31T02:23:25.015Z,11.00
2022-07-31T02:27:56.241Z,12.47
2022-07-31T02:37:39.566Z,11.00
2022-07-31T02:42:24.329Z,12.10
2022-07-31T02:52:23.916Z,10.97
2022-07-31T02:56:52.687Z,12.60
2022-07-31T03:00:26.986Z,11.67
2022-07-31T03:04:18.265Z,12.77
2022-07-31T03:09:00.925Z,11.30
2022-07-31T03:17:10.657Z,11.53
2022-07-31T03:23:43.793Z,10.97
2022-07-31T03:30:56.516Z,10.83
2022-07-31T03:34:12.303Z,11.90
2022-07-31T03:42:06.402Z,12.90
2022-07-31T03:47:09.169Z,12.60
2022-07-31T03:56:32.694Z,11.70
2022-07-31T04:01:57.589Z,13.13
2022-07-31T04:14:51.105Z,13.30
2022-07-31T04:36:41.895Z,13.27
2022-07-31T05:14:33.364Z,9.47
2022-07-31T05:17:03.400Z,10.60
2022-07-31T05:19:49.356Z,9.50
2022-07-31T05:22:34.645Z,9.37
2022-07-31T05:25:26.315Z,8.63
2022-07-31T05:27:54.787Z,8.40
2022-07-31T05:30:30.365Z,8.90
2022-07-31T05:33:01.084Z,7.90
2022-07-31T05:35:29.575Z,7.63
2022-07-31T05:37:58.128Z,7.70
2022-07-31T05:40:41.637Z,7.23
2022-07-31T05:44:27.034Z,7.67
2022-07-31T05:47:39.876Z,7.83
2022-07-31T05:55:16.515Z,7.30
2022-07-31T05:59:46.931Z,6.97
2022-07-31T06:03:15.352Z,7.77
2022-07-31T06:12:05.618Z,7.93
2022-07-31T06:14:36.927Z,8.40
2022-07-31T06:17:13.335Z,6.83
2022-07-31T06:19:41.883Z,7.47
2022-07-31T06:22:15.627Z,6.57
2022-07-31T06:24:44.097Z,7.13
2022-07-31T06:27:17.013Z,6.90
2022-07-31T06:30:01.992Z,7.13
2022-07-31T06:32:31.710Z,7.30
2022-07-31T06:35:01.094Z,6.90
2022-07-31T06:37:33.641Z,6.80
2022-07-31T06:40:05.841Z,6.83
2022-07-31T06:43:09.341Z,7.37
2022-07-31T06:45:58.493Z,6.97
2022-07-31T06:48:45.681Z,6.00
2022-07-31T06:51:30.319Z,6.73
2022-07-31T06:54:03.694Z,7.00
2022-07-31T06:56:34.934Z,7.27
2022-07-31T06:59:05.133Z,6.80
2022-07-31T07:01:34.118Z,6.60
2022-07-31T07:04:02.947Z,6.73
2022-07-31T07:06:31.640Z,6.20
2022-07-31T07:09:01.758Z,6.17
2022-07-31T07:11:30.317Z,6.20
2022-07-31T07:13:58.958Z,6.60
2022-07-31T07:16:29.160Z,6.50
2022-07-31T07:18:57.779Z,5.47
2022-07-31T07:21:26.325Z,4.83
2022-07-31T07:23:54.853Z,5.67
2022-07-31T07:26:41.474Z,5.93
2022-07-31T07:29:11.062Z,6.20
2022-07-31T07:31:39.529Z,6.13
2022-07-31T07:34:09.882Z,6.60
2022-07-31T07:36:38.390Z,5.77
2022-07-31T07:39:14.330Z,6.20
2022-07-31T07:41:45.484Z,5.80
2022-07-31T07:44:14.154Z,6.20
2022-07-31T07:46:43.121Z,4.83
2022-07-31T07:49:15.423Z,4.57
2022-07-31T07:51:58.693Z,5.57
2022-07-31T07:54:40.869Z,5.00
2022-07-31T07:57:29.882Z,4.70
2022-07-31T08:00:08.048Z,5.80
2022-07-31T08:03:47.108Z,5.00
2022-07-31T08:05:39.889Z,4.87
2022-07-31T08:08:08.500Z,5.07
2022-07-31T08:10:43.224Z,4.83
2022-07-31T08:13:23.829Z,4.53
2022-07-31T08:16:15.290Z,3.57
2022-07-31T08:18:46.699Z,4.03
2022-07-31T08:21:15.488Z,4.17
2022-07-31T08:23:44.048Z,3.97
2022-07-31T08:26:13.853Z,3.67
2022-07-31T08:28:49.963Z,3.60
2022-07-31T08:31:20.624Z,3.87
2022-07-31T08:34:31.626Z,4.33
2022-07-31T08:37:52.612Z,3.80
2022-07-31T08:39:53.157Z,3.63
2022-07-31T08:42:21.871Z,4.13
2022-07-31T08:44:51.933Z,3.67
2022-07-31T08:47:28.010Z,4.07
2022-07-31T08:50:00.581Z,3.83
2022-07-31T08:52:33.304Z,3.60
2022-07-31T08:55:10.357Z,4.03
2022-07-31T08:57:54.258Z,3.50
2022-07-31T09:00:24.272Z,3.63
2022-07-31T09:02:55.023Z,3.50
2022-07-31T09:05:42.686Z,3.80
2022-07-31T09:08:15.087Z,4.20
2022-07-31T09:10:49.841Z,3.60
2022-07-31T09:13:22.487Z,4.00
2022-07-31T09:15:58.990Z,3.70
2022-07-31T09:18:27.945Z,4.17
2022-07-31T09:21:08.505Z,4.07
2022-07-31T09:23:47.367Z,3.90
2022-07-31T09:26:16.720Z,4.70
2022-07-31T09:28:48.765Z,3.80
2022-07-31T09:31:22.130Z,4.17
2022-07-31T09:34:13.669Z,3.60
2022-07-31T09:36:42.154Z,3.80
2022-07-31T09:39:31.083Z,3.60
2022-07-31T09:42:25.089Z,3.50
2022-07-31T09:45:00.253Z,3.30
2022-07-31T09:47:32.944Z,3.37
2022-07-31T09:50:06.864Z,3.70
2022-07-31T09:52:35.908Z,3.60
2022-07-31T10:07:31.597Z,3.50
2022-07-31T10:21:19.976Z,3.07
2022-07-31T10:34:41.331Z,2.70
2022-07-31T10:39:27.899Z,2.77
2022-07-31T10:42:13.892Z,3.00
2022-07-31T10:45:08.813Z,3.00
2022-07-31T10:48:13.165Z,2.33
2022-07-31T10:51:29.313Z,2.17
2022-07-31T11:38:36.390Z,1.50
2022-07-31T11:41:14.212Z,1.47
2022-07-31T11:44:36.339Z,1.60
2022-07-31T11:48:41.023Z,1.83
2022-07-31T11:53:02.863Z,1.70
2022-07-31T11:57:27.721Z,1.63
2022-07-31T12:07:49.481Z,1.40
2022-07-31T12:11:30.584Z,1.50
2022-07-31T12:26:16.571Z,1.20
2022-07-31T12:34:49.539Z,1.50
2022-07-31T15:19:20.247Z,1.80
2022-07-31T15:22:15.867Z,1.60
2022-07-31T15:24:40.218Z,1.60
2022-07-31T15:27:12.692Z,1.60
2022-07-31T15:30:00.651Z,2.03
2022-07-31T15:32:33.247Z,1.50
2022-07-31T15:35:04.327Z,1.80
2022-07-31T15:37:36.429Z,1.53
2022-07-31T15:40:11.293Z,1.80
2022-07-31T15:42:43.851Z,1.60
2022-07-31T15:45:15.847Z,1.53
2022-07-31T15:47:46.385Z,1.73
2022-07-31T15:50:20.313Z,1.80
2022-07-31T15:52:50.173Z,1.60
2022-07-31T15:55:19.968Z,1.80
2022-07-31T15:57:49.469Z,1.83
2022-07-31T16:00:19.192Z,1.80
2022-07-31T16:02:53.211Z,1.40
2022-07-31T16:05:36.530Z,1.93
2022-07-31T16:08:29.023Z,1.60
2022-07-31T16:10:59.503Z,1.87
2022-07-31T16:13:28.709Z,1.80
2022-07-31T16:15:57.827Z,1.73
2022-07-31T16:18:26.925Z,1.40
2022-07-31T16:20:58.926Z,1.63
2022-07-31T16:28:33.223Z,1.70
2022-07-31T16:31:56.837Z,1.63
2022-07-31T16:43:50.892Z,2.10
2022-07-31T16:48:23.376Z,2.13
2022-07-31T16:51:29.970Z,2.10
2022-07-31T16:54:54.146Z,2.20
2022-07-31T16:57:37.475Z,2.17
2022-07-31T17:00:17.376Z,2.50
2022-07-31T17:02:48.052Z,1.90
2022-07-31T17:05:21.767Z,2.10
2022-07-31T17:09:17.019Z,2.03
2022-07-31T17:13:16.617Z,2.17
2022-07-31T17:16:10.661Z,2.20
2022-07-31T17:20:10.162Z,1.90
2022-07-31T17:23:06.323Z,1.87
2022-07-31T17:30:27.268Z,1.57
2022-07-31T17:42:59.422Z,3.10
2022-07-31T17:46:28.114Z,2.57
2022-07-31T17:49:20.785Z,2.40
2022-07-31T17:52:23.833Z,2.20
2022-07-31T17:55:31.189Z,2.20
2022-07-31T17:59:17.494Z,2.10
2022-07-31T18:02:36.394Z,2.00
2022-07-31T18:05:20.700Z,2.50
2022-07-31T18:09:12.075Z,2.10
2022-07-31T18:16:41.752Z,2.27
2022-07-31T18:19:43.835Z,2.00
2022-07-31T19:21:42.028Z,3.73
2022-07-31T19:24:11.839Z,3.67
2022-07-31T19:26:42.323Z,3.23
2022-07-31T19:29:11.325Z,3.77
2022-07-31T19:31:49.708Z,3.70
2022-07-31T19:34:24.156Z,3.23
2022-07-31T19:36:55.596Z,3.40
2022-07-31T19:39:24.764Z,3.23
2022-07-31T19:42:11.563Z,3.23
2022-07-31T19:44:55.146Z,2.77
2022-07-31T19:47:24.265Z,3.70
2022-07-31T19:50:14.130Z,3.20
2022-07-31T19:53:00.911Z,2.60
2022-07-31T19:56:05.289Z,2.77
2022-07-31T19:58:43.633Z,2.83
2022-07-31T20:01:20.015Z,3.30
2022-07-31T20:04:15.100Z,2.63
2022-07-31T20:11:09.114Z,2.67
2022-07-31T20:13:40.587Z,4.00
2022-07-31T20:16:37.419Z,3.40
2022-07-31T20:19:15.103Z,3.70
2022-07-31T20:21:44.256Z,3.60
2022-07-31T20:24:41.129Z,3.50
2022-07-31T20:27:15.646Z,3.57
2022-07-31T20:29:44.950Z,2.53
2022-07-31T20:32:30.794Z,3.00
2022-07-31T20:35:49.062Z,3.07
2022-07-31T20:38:55.211Z,2.80
2022-07-31T20:41:27.503Z,3.20
2022-07-31T20:44:06.633Z,3.07
2022-07-31T20:46:41.487Z,2.50
2022-07-31T21:05:27.436Z,3.00
